createdAt,value
2022-09-13T00:00:03.100Z,969.76
2022-09-13T00:01:03.175Z,969.76
2022-09-13T00:02:03.154Z,969.76
2022-09-13T00:03:03.078Z,969.77
2022-09-13T00:04:03.066Z,969.77
2022-09-13T00:05:03.082Z,969.81
2022-09-13T00:06:03.048Z,969.77
2022-09-13T00:07:03.043Z,969.81
2022-09-13T00:08:03.030Z,969.83
2022-09-13T00:09:03.031Z,969.82
2022-09-13T00:10:03.017Z,969.79
2022-09-13T00:11:03.007Z,969.78
2022-09-13T00:12:02.997Z,969.76
2022-09-13T00:13:02.992Z,969.79
2022-09-13T00:14:02.979Z,969.78
2022-09-13T00:15:02.971Z,969.74
2022-09-13T00:16:02.982Z,969.74
2022-09-13T00:17:02.954Z,969.73
2022-09-13T00:18:02.948Z,969.72
2022-09-13T00:19:02.936Z,969.75
2022-09-13T00:20:02.931Z,969.72
2022-09-13T00:21:02.935Z,969.71
2022-09-13T00:22:02.913Z,969.67
2022-09-13T00:23:02.902Z,969.68
2022-09-13T00:24:02.894Z,969.72
2022-09-13T00:25:02.885Z,969.75
2022-09-13T00:26:02.877Z,969.76
2022-09-13T00:27:02.867Z,969.76
2022-09-13T00:28:02.861Z,969.78
2022-09-13T00:29:02.849Z,969.79
2022-09-13T00:30:02.843Z,969.78
2022-09-13T00:31:02.831Z,969.77
2022-09-13T00:32:02.877Z,969.73
2022-09-13T00:33:02.815Z,969.71
2022-09-13T00:34:02.811Z,969.69
2022-09-13T00:35:02.796Z,969.73
2022-09-13T00:36:02.790Z,969.69
2022-09-13T00:37:02.903Z,969.70
2022-09-13T00:38:02.773Z,969.67
2022-09-13T00:39:02.865Z,969.66
2022-09-13T00:40:02.855Z,969.69
2022-09-13T00:41:02.747Z,969.63
2022-09-13T00:42:02.738Z,969.65
2022-09-13T00:43:02.727Z,969.63
2022-09-13T00:44:02.720Z,969.60
2022-09-13T00:45:02.714Z,969.64
2022-09-13T00:46:02.751Z,969.56
2022-09-13T00:47:02.692Z,969.55
2022-09-13T00:48:02.685Z,969.57
2022-09-13T00:49:02.675Z,969.60
2022-09-13T00:50:02.668Z,969.64
2022-09-13T00:51:02.659Z,969.64
2022-09-13T00:52:02.649Z,969.68
2022-09-13T00:53:02.658Z,969.70
2022-09-13T00:54:02.734Z,969.71
2022-09-13T00:55:02.621Z,969.72
2022-09-13T00:56:02.616Z,969.74
2022-09-13T00:57:02.607Z,969.71
2022-09-13T00:58:02.598Z,969.73
2022-09-13T00:59:02.590Z,969.74
2022-09-13T01:00:02.581Z,969.71
2022-09-13T01:01:02.631Z,969.70
2022-09-13T01:02:02.601Z,969.72
2022-09-13T01:03:02.550Z,969.72
2022-09-13T01:04:02.543Z,969.74
2022-09-13T01:05:02.533Z,969.77
2022-09-13T01:06:02.528Z,969.76
2022-09-13T01:07:02.515Z,969.75
2022-09-13T01:08:02.512Z,969.79
2022-09-13T01:09:02.555Z,969.75
2022-09-13T01:10:02.490Z,969.78
2022-09-13T01:11:02.482Z,969.72
2022-09-13T01:12:02.472Z,969.70
2022-09-13T01:13:02.460Z,969.69
2022-09-13T01:14:02.454Z,969.67
2022-09-13T01:15:02.443Z,969.64
2022-09-13T01:16:02.492Z,969.66
2022-09-13T01:17:02.425Z,969.66
2022-09-13T01:18:02.419Z,969.65
2022-09-13T01:19:02.407Z,969.63
2022-09-13T01:20:02.400Z,969.65
2022-09-13T01:21:02.389Z,969.68
2022-09-13T01:22:02.383Z,969.70
2022-09-13T01:23:02.373Z,969.75
2022-09-13T01:24:02.365Z,969.70
2022-09-13T01:25:02.369Z,969.70
2022-09-13T01:26:02.347Z,969.67
2022-09-13T01:27:02.338Z,969.66
2022-09-13T01:28:02.328Z,969.67
2022-09-13T01:29:02.316Z,969.67
2022-09-13T01:30:02.311Z,969.68
2022-09-13T01:31:02.298Z,969.68
2022-09-13T01:32:02.367Z,969.64
2022-09-13T01:33:02.283Z,969.65
2022-09-13T01:34:02.274Z,969.69
2022-09-13T01:35:02.267Z,969.69
2022-09-13T01:36:02.258Z,969.66
2022-09-13T01:37:02.244Z,969.67
2022-09-13T01:38:02.238Z,969.68
2022-09-13T01:39:02.225Z,969.72
2022-09-13T01:40:02.271Z,969.73
2022-09-13T01:41:04.792Z,969.71
2022-09-13T01:42:02.205Z,969.76
2022-09-13T01:43:02.194Z,969.72
2022-09-13T01:44:02.187Z,969.71
2022-09-13T01:45:02.172Z,969.72
2022-09-13T01:46:02.275Z,969.70
2022-09-13T01:47:02.152Z,969.74
2022-09-13T01:48:02.145Z,969.76
2022-09-13T01:49:02.138Z,969.79
2022-09-13T01:50:02.128Z,969.77
2022-09-13T01:51:02.126Z,969.75
2022-09-13T01:52:02.108Z,969.76
2022-09-13T01:53:02.097Z,969.76
2022-09-13T01:54:02.091Z,969.78
2022-09-13T01:55:02.088Z,969.79
2022-09-13T01:56:02.072Z,969.80
2022-09-13T01:57:02.164Z,969.78
2022-09-13T01:58:02.067Z,969.82
2022-09-13T01:59:02.041Z,969.83
2022-09-13T02:00:02.038Z,969.79
2022-09-13T02:01:02.055Z,969.82
2022-09-13T02:02:02.080Z,969.83
2022-09-13T02:03:02.025Z,969.80
2022-09-13T02:04:01.998Z,969.79
2022-09-13T02:05:01.999Z,969.76
2022-09-13T02:06:01.996Z,969.79
2022-09-13T02:07:01.969Z,969.83
2022-09-13T02:08:01.975Z,969.85
2022-09-13T02:09:01.950Z,969.87
2022-09-13T02:10:01.943Z,969.87
2022-09-13T02:11:01.933Z,969.86
2022-09-13T02:12:01.924Z,969.86
2022-09-13T02:13:01.934Z,969.84
2022-09-13T02:14:01.907Z,969.90
2022-09-13T02:15:01.895Z,969.89
2022-09-13T02:16:01.889Z,969.82
2022-09-13T02:17:01.877Z,969.77
2022-09-13T02:18:01.869Z,969.78
2022-09-13T02:19:01.856Z,969.77
2022-09-13T02:20:01.849Z,969.73
2022-09-13T02:21:01.838Z,969.77
2022-09-13T02:22:01.831Z,969.77
2022-09-13T02:23:01.822Z,969.74
2022-09-13T02:24:01.813Z,969.79
2022-09-13T02:25:01.802Z,969.75
2022-09-13T02:26:01.793Z,969.81
2022-09-13T02:27:01.782Z,969.82
2022-09-13T02:28:01.781Z,969.81
2022-09-13T02:29:01.874Z,969.81
2022-09-13T02:30:01.759Z,969.77
2022-09-13T02:31:01.746Z,969.71
2022-09-13T02:32:01.781Z,969.72
2022-09-13T02:33:01.728Z,969.70
2022-09-13T02:34:01.720Z,969.72
2022-09-13T02:35:01.707Z,969.71
2022-09-13T02:36:01.701Z,969.68
2022-09-13T02:37:01.689Z,969.67
2022-09-13T02:38:01.781Z,969.66
2022-09-13T02:39:01.670Z,969.64
2022-09-13T02:40:01.729Z,969.59
2022-09-13T02:41:01.652Z,969.57
2022-09-13T02:42:01.657Z,969.54
2022-09-13T02:43:01.645Z,969.49
2022-09-13T02:44:01.624Z,969.55
2022-09-13T02:45:01.635Z,969.50
2022-09-13T02:46:01.705Z,969.55
2022-09-13T02:47:01.595Z,969.55
2022-09-13T02:48:01.589Z,969.58
2022-09-13T02:49:01.581Z,969.54
2022-09-13T02:50:01.569Z,969.54
2022-09-13T02:51:01.557Z,969.53
2022-09-13T02:52:01.550Z,969.53
2022-09-13T02:53:01.541Z,969.58
2022-09-13T02:54:01.533Z,969.55
2022-09-13T02:55:01.619Z,969.53
2022-09-13T02:56:01.516Z,969.58
2022-09-13T02:57:01.501Z,969.58
2022-09-13T02:58:01.494Z,969.56
2022-09-13T02:59:01.483Z,969.59
2022-09-13T03:00:01.485Z,969.53
2022-09-13T03:01:01.523Z,969.52
2022-09-13T03:02:01.505Z,969.56
2022-09-13T03:03:01.444Z,969.58
2022-09-13T03:04:01.437Z,969.52
2022-09-13T03:05:01.431Z,969.52
2022-09-13T03:06:01.418Z,969.49
2022-09-13T03:07:01.407Z,969.54
2022-09-13T03:08:01.399Z,969.54
2022-09-13T03:09:01.388Z,969.53
2022-09-13T03:10:01.381Z,969.56
2022-09-13T03:11:01.369Z,969.57
2022-09-13T03:12:01.361Z,969.55
2022-09-13T03:13:01.350Z,969.58
2022-09-13T03:14:01.345Z,969.56
2022-09-13T03:15:01.336Z,969.56
2022-09-13T03:16:01.323Z,969.49
2022-09-13T03:17:01.332Z,969.49
2022-09-13T03:18:01.306Z,969.56
2022-09-13T03:19:01.292Z,969.54
2022-09-13T03:20:01.335Z,969.58
2022-09-13T03:21:01.274Z,969.59
2022-09-13T03:22:01.266Z,969.56
2022-09-13T03:23:01.257Z,969.56
2022-09-13T03:24:01.247Z,969.56
2022-09-13T03:25:01.236Z,969.59
2022-09-13T03:26:01.242Z,969.63
2022-09-13T03:27:01.216Z,969.64
2022-09-13T03:28:01.216Z,969.65
2022-09-13T03:29:01.197Z,969.65
2022-09-13T03:30:01.204Z,969.66
2022-09-13T03:31:01.180Z,969.69
2022-09-13T03:32:01.245Z,969.71
2022-09-13T03:33:01.265Z,969.73
2022-09-13T03:34:01.151Z,969.69
2022-09-13T03:35:01.139Z,969.74
2022-09-13T03:36:01.132Z,969.70
2022-09-13T03:37:01.120Z,969.70
2022-09-13T03:38:01.115Z,969.70
2022-09-13T03:39:01.100Z,969.73
2022-09-13T03:40:01.136Z,969.73
2022-09-13T03:41:01.083Z,969.75
2022-09-13T03:42:01.075Z,969.74
2022-09-13T03:43:01.062Z,969.71
2022-09-13T03:44:01.055Z,969.67
2022-09-13T03:45:01.043Z,969.71
2022-09-13T03:46:01.138Z,969.71
2022-09-13T03:47:01.025Z,969.67
2022-09-13T03:48:01.016Z,969.65
2022-09-13T03:49:01.107Z,969.62
2022-09-13T03:50:00.998Z,969.62
2022-09-13T03:51:00.985Z,969.60
2022-09-13T03:52:00.978Z,969.61
2022-09-13T03:53:00.966Z,969.60
2022-09-13T03:54:00.963Z,969.54
2022-09-13T03:55:00.951Z,969.59
2022-09-13T03:56:00.940Z,969.61
2022-09-13T03:57:00.930Z,969.59
2022-09-13T03:58:00.923Z,969.60
2022-09-13T03:59:00.909Z,969.57
2022-09-13T04:00:00.902Z,969.55
2022-09-13T04:01:00.924Z,969.57
2022-09-13T04:02:00.904Z,969.54
2022-09-13T04:03:00.871Z,969.57
2022-09-13T04:04:00.862Z,969.58
2022-09-13T04:05:00.869Z,969.63
2022-09-13T04:06:00.845Z,969.66
2022-09-13T04:07:00.835Z,969.72
2022-09-13T04:08:00.828Z,969.74
2022-09-13T04:09:00.912Z,969.78
2022-09-13T04:10:00.806Z,969.78
2022-09-13T04:11:00.794Z,969.80
2022-09-13T04:12:00.787Z,969.77
2022-09-13T04:13:00.776Z,969.77
2022-09-13T04:14:00.768Z,969.75
2022-09-13T04:15:00.755Z,969.75
2022-09-13T04:16:00.779Z,969.71
2022-09-13T04:17:00.736Z,969.75
2022-09-13T04:18:00.729Z,969.71
2022-09-13T04:19:00.719Z,969.72
2022-09-13T04:20:00.710Z,969.71
2022-09-13T04:21:00.714Z,969.77
2022-09-13T04:22:00.690Z,969.78
2022-09-13T04:23:00.677Z,969.79
2022-09-13T04:24:00.671Z,969.79
2022-09-13T04:25:02.666Z,969.73
2022-09-13T04:26:00.652Z,969.74
2022-09-13T04:27:00.640Z,969.75
2022-09-13T04:28:00.631Z,969.70
2022-09-13T04:29:00.621Z,969.70
2022-09-13T04:30:00.629Z,969.71
2022-09-13T04:31:00.603Z,969.71
2022-09-13T04:32:00.681Z,969.69
2022-09-13T04:33:00.598Z,969.69
2022-09-13T04:34:00.575Z,969.68
2022-09-13T04:35:00.565Z,969.68
2022-09-13T04:36:00.557Z,969.68
2022-09-13T04:37:00.564Z,969.69
2022-09-13T04:38:00.534Z,969.68
2022-09-13T04:39:00.535Z,969.66
2022-09-13T04:40:00.530Z,969.68
2022-09-13T04:41:00.507Z,969.73
2022-09-13T04:42:00.496Z,969.72
2022-09-13T04:43:00.490Z,969.71
2022-09-13T04:44:00.478Z,969.69
2022-09-13T04:45:00.468Z,969.66
2022-09-13T04:46:00.475Z,969.70
2022-09-13T04:47:00.447Z,969.69
2022-09-13T04:48:00.436Z,969.70
2022-09-13T04:49:00.429Z,969.73
2022-09-13T04:50:00.418Z,969.76
2022-09-13T04:51:00.413Z,969.76
2022-09-13T04:52:00.399Z,969.81
2022-09-13T04:53:00.410Z,969.80
2022-09-13T04:54:00.380Z,969.79
2022-09-13T04:55:00.371Z,969.81
2022-09-13T04:56:00.361Z,969.79
2022-09-13T04:57:00.352Z,969.80
2022-09-13T04:58:00.343Z,969.78
2022-09-13T04:59:00.333Z,969.84
2022-09-13T05:00:00.323Z,969.89
2022-09-13T05:01:00.373Z,969.90
2022-09-13T05:02:00.327Z,969.93
2022-09-13T05:03:00.308Z,969.94
2022-09-13T05:04:00.283Z,969.97
2022-09-13T05:05:00.278Z,969.98
2022-09-13T05:06:00.264Z,969.96
2022-09-13T05:07:00.257Z,970.04
2022-09-13T05:08:00.249Z,970.02
2022-09-13T05:09:00.255Z,970.03
2022-09-13T05:10:00.255Z,970.07
2022-09-13T05:11:00.231Z,969.99
2022-09-13T05:12:00.206Z,969.97
2022-09-13T05:13:00.201Z,969.97
2022-09-13T05:14:00.186Z,969.95
2022-09-13T05:15:00.183Z,969.91
2022-09-13T05:16:00.229Z,969.97
2022-09-13T05:17:00.160Z,969.93
2022-09-13T05:18:00.149Z,969.97
2022-09-13T05:19:00.141Z,969.97
2022-09-13T05:20:00.133Z,969.97
2022-09-13T05:21:00.122Z,969.99
2022-09-13T05:22:00.109Z,969.99
2022-09-13T05:23:00.110Z,970.03
2022-09-13T05:24:00.094Z,969.99
2022-09-13T05:25:00.124Z,970.02
2022-09-13T05:26:00.078Z,970.04
2022-09-13T05:27:00.076Z,969.97
2022-09-13T05:28:00.053Z,969.98
2022-09-13T05:29:00.045Z,969.96
2022-09-13T05:30:00.034Z,969.91
2022-09-13T05:31:00.258Z,969.93
2022-09-13T05:32:00.015Z,969.89
2022-09-13T05:33:00.009Z,969.85
2022-09-13T05:33:59.995Z,969.84
2022-09-13T05:34:59.988Z,969.79
2022-09-13T05:35:59.976Z,969.76
2022-09-13T05:36:59.968Z,969.75
2022-09-13T05:37:59.958Z,969.74
2022-09-13T05:39:29.127Z,969.76
2022-09-13T05:40:11.072Z,969.74
2022-09-13T05:41:00.031Z,969.74
2022-09-13T05:41:59.921Z,969.77
2022-09-13T05:42:59.915Z,969.77
2022-09-13T05:44:07.949Z,969.72
2022-09-13T05:44:59.893Z,969.74
2022-09-13T05:46:00.042Z,969.77
2022-09-13T05:46:59.874Z,969.78
2022-09-13T05:47:59.864Z,969.78
2022-09-13T05:48:59.856Z,969.82
2022-09-13T05:50:10.159Z,969.79
2022-09-13T05:50:59.836Z,969.81
2022-09-13T05:51:59.827Z,969.83
2022-09-13T05:52:59.819Z,969.84
2022-09-13T05:53:59.806Z,969.85
2022-09-13T05:54:59.799Z,969.86
2022-09-13T05:55:59.790Z,969.84
2022-09-13T05:56:59.798Z,969.83
2022-09-13T05:57:59.771Z,969.75
2022-09-13T05:58:59.762Z,969.75
2022-09-13T05:59:59.753Z,969.69
2022-09-13T06:00:59.747Z,969.65
2022-09-13T06:01:59.773Z,969.65
2022-09-13T06:02:59.763Z,969.62
2022-09-13T06:03:59.717Z,969.63
2022-09-13T06:04:59.711Z,969.63
2022-09-13T06:05:59.700Z,969.62
2022-09-13T06:06:59.690Z,969.63
2022-09-13T06:07:59.679Z,969.67
2022-09-13T06:08:59.674Z,969.65
2022-09-13T06:09:59.665Z,969.67
2022-09-13T06:10:59.656Z,969.66
2022-09-13T06:11:59.645Z,969.69
2022-09-13T06:12:59.656Z,969.69
2022-09-13T06:13:59.729Z,969.69
2022-09-13T06:14:59.624Z,969.71
2022-09-13T06:15:59.656Z,969.72
2022-09-13T06:16:59.605Z,969.74
2022-09-13T06:17:59.596Z,969.72
2022-09-13T06:18:59.589Z,969.64
2022-09-13T06:19:59.578Z,969.66
2022-09-13T06:20:59.574Z,969.66
2022-09-13T06:21:59.565Z,969.65
2022-09-13T06:22:59.554Z,969.68
2022-09-13T06:23:59.551Z,969.68
2022-09-13T06:24:59.539Z,969.72
2022-09-13T06:25:59.531Z,969.72
2022-09-13T06:26:59.522Z,969.74
2022-09-13T06:27:59.512Z,969.69
2022-09-13T06:28:59.525Z,969.68
2022-09-13T06:29:59.498Z,969.64
2022-09-13T06:30:59.515Z,969.67
2022-09-13T06:31:59.481Z,969.71
2022-09-13T06:32:59.487Z,969.65
2022-09-13T06:33:59.464Z,969.66
2022-09-13T06:34:59.460Z,969.66
2022-09-13T06:35:59.448Z,969.68
2022-09-13T06:36:59.443Z,969.65
2022-09-13T06:37:59.434Z,969.65
2022-09-13T06:38:59.427Z,969.62
2022-09-13T06:39:59.489Z,969.62
2022-09-13T06:40:59.411Z,969.62
2022-09-13T06:41:59.404Z,969.62
2022-09-13T06:42:59.416Z,969.61
2022-09-13T06:43:59.388Z,969.59
2022-09-13T06:44:59.488Z,969.58
2022-09-13T06:45:59.447Z,969.55
2022-09-13T06:46:59.367Z,969.52
2022-09-13T06:47:59.361Z,969.47
2022-09-13T06:48:59.357Z,969.48
2022-09-13T06:49:59.346Z,969.46
2022-09-13T06:50:59.339Z,969.44
2022-09-13T06:51:59.330Z,969.39
2022-09-13T06:52:59.325Z,969.39
2022-09-13T06:53:59.320Z,969.41
2022-09-13T06:54:59.314Z,969.35
2022-09-13T06:55:59.307Z,969.35
2022-09-13T06:56:59.298Z,969.34
2022-09-13T06:57:59.289Z,969.30
2022-09-13T06:58:59.287Z,969.33
2022-09-13T06:59:59.277Z,969.38
2022-09-13T07:00:59.382Z,969.39
2022-09-13T07:01:59.333Z,969.34
2022-09-13T07:02:59.256Z,969.37
2022-09-13T07:03:59.259Z,969.36
2022-09-13T07:04:59.244Z,969.33
2022-09-13T07:05:59.234Z,969.36
2022-09-13T07:06:59.229Z,969.28
2022-09-13T07:07:59.221Z,969.24
2022-09-13T07:08:59.216Z,969.21
2022-09-13T07:09:59.207Z,969.21
2022-09-13T07:10:59.204Z,969.19
2022-09-13T07:11:59.198Z,969.15
2022-09-13T07:12:59.198Z,969.14
2022-09-13T07:13:59.182Z,969.20
2022-09-13T07:14:59.177Z,969.14
2022-09-13T07:15:59.232Z,969.22
2022-09-13T07:16:59.267Z,969.27
2022-09-13T07:17:59.159Z,969.26
2022-09-13T07:18:59.151Z,969.28
2022-09-13T07:19:59.146Z,969.27
2022-09-13T07:20:59.141Z,969.28
2022-09-13T07:21:59.133Z,969.26
2022-09-13T07:22:59.127Z,969.26
2022-09-13T07:23:59.169Z,969.28
2022-09-13T07:24:59.116Z,969.29
2022-09-13T07:25:59.108Z,969.24
2022-09-13T07:26:59.103Z,969.25
2022-09-13T07:27:59.095Z,969.27
2022-09-13T07:28:59.092Z,969.24
2022-09-13T07:29:59.084Z,969.22
2022-09-13T07:30:59.111Z,969.26
2022-09-13T07:31:59.071Z,969.25
2022-09-13T07:32:59.085Z,969.28
2022-09-13T07:33:59.058Z,969.28
2022-09-13T07:34:59.055Z,969.33
2022-09-13T07:35:59.047Z,969.32
2022-09-13T07:36:59.043Z,969.37
2022-09-13T07:37:59.036Z,969.38
2022-09-13T07:38:59.046Z,969.37
2022-09-13T07:39:59.091Z,969.39
2022-09-13T07:40:59.019Z,969.44
2022-09-13T07:41:59.014Z,969.37
2022-09-13T07:42:59.009Z,969.40
2022-09-13T07:43:59.001Z,969.36
2022-09-13T07:44:58.997Z,969.38
2022-09-13T07:45:59.079Z,969.38
2022-09-13T07:46:58.985Z,969.42
2022-09-13T07:47:58.980Z,969.36
2022-09-13T07:48:58.991Z,969.42
2022-09-13T07:49:58.967Z,969.40
2022-09-13T07:50:58.963Z,969.40
2022-09-13T07:51:58.954Z,969.42
2022-09-13T07:52:58.951Z,969.41
2022-09-13T07:53:58.946Z,969.44
2022-09-13T07:54:58.941Z,969.42
2022-09-13T07:55:58.934Z,969.44
2022-09-13T07:56:58.929Z,969.39
2022-09-13T07:57:58.924Z,969.36
2022-09-13T07:58:58.918Z,969.37
2022-09-13T07:59:58.912Z,969.34
2022-09-13T08:00:58.962Z,969.34
2022-09-13T08:01:59.037Z,969.31
2022-09-13T08:02:58.929Z,969.31
2022-09-13T08:03:58.892Z,969.31
2022-09-13T08:04:58.906Z,969.32
2022-09-13T08:05:58.882Z,969.29
2022-09-13T08:07:09.290Z,969.31
2022-09-13T08:07:58.873Z,969.35
2022-09-13T08:08:58.870Z,969.33
2022-09-13T08:09:58.864Z,969.34
2022-09-13T08:10:58.861Z,969.30
2022-09-13T08:11:58.850Z,969.30
2022-09-13T08:12:58.847Z,969.31
2022-09-13T08:13:58.844Z,969.31
2022-09-13T08:14:58.838Z,969.28
2022-09-13T08:15:58.872Z,969.18
2022-09-13T08:16:58.827Z,969.21
2022-09-13T08:17:58.824Z,969.17
2022-09-13T08:18:58.817Z,969.12
2022-09-13T08:19:58.812Z,969.15
2022-09-13T08:20:59.030Z,969.17
2022-09-13T08:21:58.801Z,969.14
2022-09-13T08:22:58.798Z,969.17
2022-09-13T08:23:58.793Z,969.14
2022-09-13T08:24:58.803Z,969.14
2022-09-13T08:25:58.784Z,969.13
2022-09-13T08:26:58.780Z,969.16
2022-09-13T08:27:58.775Z,969.12
2022-09-13T08:28:58.773Z,969.14
2022-09-13T08:29:58.778Z,969.16
2022-09-13T08:30:58.784Z,969.13
2022-09-13T08:31:58.757Z,969.14
2022-09-13T08:32:58.754Z,969.13
2022-09-13T08:33:58.750Z,969.14
2022-09-13T08:34:58.744Z,969.17
2022-09-13T08:35:58.739Z,969.17
2022-09-13T08:36:58.761Z,969.17
2022-09-13T08:37:58.731Z,969.21
2022-09-13T08:38:58.728Z,969.20
2022-09-13T08:39:58.757Z,969.20
2022-09-13T08:40:58.719Z,969.20
2022-09-13T08:41:58.713Z,969.20
2022-09-13T08:42:58.710Z,969.20
2022-09-13T08:43:58.705Z,969.19
2022-09-13T08:44:58.701Z,969.21
2022-09-13T08:45:58.749Z,969.22
2022-09-13T08:46:58.694Z,969.21
2022-09-13T08:47:58.695Z,969.17
2022-09-13T08:48:58.689Z,969.14
2022-09-13T08:49:58.683Z,969.18
2022-09-13T08:50:58.676Z,969.16
2022-09-13T08:51:58.672Z,969.19
2022-09-13T08:52:58.687Z,969.20
2022-09-13T08:53:58.667Z,969.16
2022-09-13T08:54:58.735Z,969.17
2022-09-13T08:55:58.657Z,969.18
2022-09-13T08:56:58.654Z,969.16
2022-09-13T08:57:58.651Z,969.12
2022-09-13T08:58:58.645Z,969.17
2022-09-13T08:59:58.644Z,969.12
2022-09-13T09:00:58.691Z,969.15
2022-09-13T09:01:58.637Z,969.13
2022-09-13T09:02:58.685Z,969.15
2022-09-13T09:03:58.628Z,969.14
2022-09-13T09:04:58.623Z,969.11
2022-09-13T09:05:58.622Z,969.09
2022-09-13T09:06:58.614Z,969.10
2022-09-13T09:07:58.616Z,969.08
2022-09-13T09:08:58.629Z,969.04
2022-09-13T09:09:58.611Z,969.08
2022-09-13T09:10:58.601Z,969.11
2022-09-13T09:11:58.600Z,969.07
2022-09-13T09:12:58.596Z,969.07
2022-09-13T09:13:58.693Z,969.05
2022-09-13T09:14:58.587Z,969.08
2022-09-13T09:15:58.667Z,969.06
2022-09-13T09:16:58.581Z,969.09
2022-09-13T09:17:58.582Z,969.10
2022-09-13T09:18:58.574Z,969.03
2022-09-13T09:19:58.574Z,969.09
2022-09-13T09:20:58.567Z,969.03
2022-09-13T09:21:58.567Z,968.99
2022-09-13T09:22:58.561Z,969.04
2022-09-13T09:23:58.560Z,969.00
2022-09-13T09:24:58.571Z,969.00
2022-09-13T09:25:58.553Z,968.98
2022-09-13T09:26:58.546Z,968.95
2022-09-13T09:27:58.547Z,968.98
2022-09-13T09:28:58.568Z,968.99
2022-09-13T09:29:58.546Z,968.98
2022-09-13T09:30:58.606Z,969.00
2022-09-13T09:31:58.536Z,969.02
2022-09-13T09:32:58.529Z,969.02
2022-09-13T09:33:58.528Z,969.01
2022-09-13T09:34:58.523Z,969.06
2022-09-13T09:35:58.523Z,969.05
2022-09-13T09:36:58.539Z,969.07
2022-09-13T09:37:58.522Z,969.06
2022-09-13T09:38:58.512Z,969.05
2022-09-13T09:39:58.576Z,969.06
2022-09-13T09:40:58.530Z,969.06
2022-09-13T09:41:58.507Z,969.05
2022-09-13T09:42:58.499Z,969.04
2022-09-13T09:43:58.499Z,968.99
2022-09-13T09:44:58.496Z,969.01
2022-09-13T09:45:58.559Z,968.99
2022-09-13T09:46:58.490Z,968.95
2022-09-13T09:47:58.490Z,968.96
2022-09-13T09:48:58.487Z,968.96
2022-09-13T09:49:58.485Z,968.90
2022-09-13T09:50:58.484Z,968.89
2022-09-13T09:51:58.480Z,968.88
2022-09-13T09:52:58.477Z,968.82
2022-09-13T09:53:58.476Z,968.83
2022-09-13T09:54:58.471Z,968.81
2022-09-13T09:55:58.469Z,968.83
2022-09-13T09:56:58.489Z,968.78
2022-09-13T09:57:58.473Z,968.79
2022-09-13T09:58:58.462Z,968.77
2022-09-13T09:59:58.461Z,968.76
2022-09-13T10:00:58.797Z,968.79
2022-09-13T10:01:58.502Z,968.76
2022-09-13T10:02:58.453Z,968.73
2022-09-13T10:03:58.453Z,968.74
2022-09-13T10:04:58.450Z,968.69
2022-09-13T10:05:58.449Z,968.70
2022-09-13T10:06:58.444Z,968.69
2022-09-13T10:07:58.444Z,968.71
2022-09-13T10:08:58.439Z,968.66
2022-09-13T10:09:58.439Z,968.64
2022-09-13T10:10:58.436Z,968.68
2022-09-13T10:11:58.435Z,968.65
2022-09-13T10:12:58.547Z,968.61
2022-09-13T10:13:58.432Z,968.59
2022-09-13T10:14:58.429Z,968.60
2022-09-13T10:16:58.482Z,968.56
2022-09-13T10:18:58.602Z,968.57
2022-09-13T10:19:58.422Z,968.52
2022-09-13T10:22:58.415Z,968.55
2022-09-13T10:23:58.416Z,968.55
2022-09-13T10:24:58.816Z,968.54
2022-09-13T10:25:58.413Z,968.58
2022-09-13T10:26:58.661Z,968.58
2022-09-13T10:27:58.410Z,968.60
2022-09-13T10:28:58.511Z,968.65
2022-09-13T10:29:58.408Z,968.61
2022-09-13T10:30:58.574Z,968.62
2022-09-13T10:31:58.406Z,968.60
2022-09-13T10:32:58.406Z,968.56
2022-09-13T10:33:58.408Z,968.57
2022-09-13T10:34:59.628Z,968.59
2022-09-13T10:36:58.402Z,968.54
2022-09-13T10:37:58.397Z,968.51
2022-09-13T10:39:58.483Z,968.52
2022-09-13T10:40:58.393Z,968.53
2022-09-13T10:41:58.394Z,968.46
2022-09-13T10:42:58.390Z,968.45
2022-09-13T10:44:58.408Z,968.39
2022-09-13T10:45:58.464Z,968.38
2022-09-13T10:46:58.389Z,968.39
2022-09-13T10:47:58.385Z,968.39
2022-09-13T10:48:58.388Z,968.34
2022-09-13T10:50:58.383Z,968.34
2022-09-13T10:51:58.387Z,968.34
2022-09-13T10:52:58.382Z,968.34
2022-09-13T10:53:58.383Z,968.28
2022-09-13T10:54:58.381Z,968.29
2022-09-13T10:55:58.383Z,968.28
2022-09-13T10:56:58.379Z,968.26
2022-09-13T10:57:58.382Z,968.24
2022-09-13T10:58:58.378Z,968.21
2022-09-13T10:59:58.380Z,968.19
2022-09-13T11:00:58.535Z,968.19
2022-09-13T11:01:58.379Z,968.18
2022-09-13T11:02:58.376Z,968.12
2022-09-13T11:03:58.505Z,968.09
2022-09-13T11:04:58.375Z,968.07
2022-09-13T11:05:58.377Z,968.05
2022-09-13T11:07:01.926Z,968.01
2022-09-13T11:07:58.375Z,967.98
2022-09-13T11:08:58.373Z,967.95
2022-09-13T11:09:58.375Z,967.98
2022-09-13T11:10:58.372Z,967.95
2022-09-13T11:11:58.374Z,967.93
2022-09-13T11:12:58.371Z,967.90
2022-09-13T11:13:58.379Z,967.93
2022-09-13T11:14:58.370Z,967.92
2022-09-13T11:15:58.371Z,967.92
2022-09-13T11:16:58.512Z,967.91
2022-09-13T11:17:58.372Z,967.91
2022-09-13T11:18:58.368Z,967.87
2022-09-13T11:19:58.372Z,967.85
2022-09-13T11:20:58.372Z,967.83
2022-09-13T11:21:58.371Z,967.81
2022-09-13T11:22:58.368Z,967.82
2022-09-13T11:23:58.371Z,967.80
2022-09-13T11:24:58.374Z,967.80
2022-09-13T11:25:58.373Z,967.81
2022-09-13T11:26:58.367Z,967.75
2022-09-13T11:27:58.370Z,967.80
2022-09-13T11:28:58.367Z,967.84
2022-09-13T11:29:58.370Z,967.84
2022-09-13T11:30:58.466Z,967.80
2022-09-13T11:31:58.563Z,967.81
2022-09-13T11:32:58.454Z,967.81
2022-09-13T11:33:58.368Z,967.78
2022-09-13T11:34:58.368Z,967.75
2022-09-13T11:35:58.369Z,967.72
2022-09-13T11:36:58.417Z,967.70
2022-09-13T11:37:58.370Z,967.68
2022-09-13T11:38:58.367Z,967.68
2022-09-13T11:39:58.440Z,967.70
2022-09-13T11:40:58.368Z,967.70
2022-09-13T11:41:58.370Z,967.65
2022-09-13T11:42:58.367Z,967.65
2022-09-13T11:43:58.369Z,967.60
2022-09-13T11:44:58.380Z,967.62
2022-09-13T11:46:58.369Z,967.58
2022-09-13T11:47:58.366Z,967.54
2022-09-13T11:48:58.386Z,967.59
2022-09-13T11:49:58.368Z,967.62
2022-09-13T11:50:58.369Z,967.60
2022-09-13T11:51:58.367Z,967.62
2022-09-13T11:52:58.369Z,967.60
2022-09-13T11:53:58.367Z,967.57
2022-09-13T11:54:58.369Z,967.55
2022-09-13T11:55:58.368Z,967.58
2022-09-13T11:56:58.385Z,967.53
2022-09-13T11:57:58.369Z,967.54
2022-09-13T11:58:58.369Z,967.49
2022-09-13T11:59:58.369Z,967.50
2022-09-13T12:00:58.371Z,967.45
2022-09-13T12:02:58.429Z,967.45
2022-09-13T12:03:58.374Z,967.47
2022-09-13T12:05:20.612Z,967.49
2022-09-13T12:05:58.372Z,967.45
2022-09-13T12:06:58.370Z,967.40
2022-09-13T12:07:58.374Z,967.43
2022-09-13T12:08:58.372Z,967.39
2022-09-13T12:09:58.375Z,967.36
2022-09-13T12:10:58.373Z,967.36
2022-09-13T12:11:58.376Z,967.38
2022-09-13T12:12:58.378Z,967.35
2022-09-13T12:13:58.379Z,967.33
2022-09-13T12:14:58.384Z,967.30
2022-09-13T12:15:58.590Z,967.31
2022-09-13T12:16:58.669Z,967.28
2022-09-13T12:18:58.381Z,967.21
2022-09-13T12:19:58.380Z,967.22
2022-09-13T12:20:58.400Z,967.22
2022-09-13T12:21:58.585Z,967.22
2022-09-13T12:22:58.587Z,967.21
2022-09-13T12:24:58.385Z,967.23
2022-09-13T12:27:58.389Z,967.22
2022-09-13T12:28:58.791Z,967.21
2022-09-13T12:29:58.599Z,967.22
2022-09-13T12:32:59.108Z,967.17
2022-09-13T12:34:58.495Z,967.14
2022-09-13T12:35:58.398Z,967.13
2022-09-13T12:36:58.417Z,967.14
2022-09-13T12:37:58.400Z,967.12
2022-09-13T12:38:58.399Z,967.12
2022-09-13T12:39:58.471Z,967.11
2022-09-13T12:40:58.405Z,967.12
2022-09-13T12:41:58.402Z,967.10
2022-09-13T12:42:58.401Z,967.06
2022-09-13T12:45:58.487Z,967.05
2022-09-13T12:46:58.405Z,967.07